sensor_id;sensor_type;location;lat;lon;timestamp;pressure;altitude;pressure_sealevel;temperature;humidity
8061;BME280;4073;42.626;25.386;2023-06-14T00:01:19;96900.44;;;20.07;100.00
8061;BME280;4073;42.626;25.386;2023-06-14T00:03:47;96901.91;;;20.05;100.00
8061;BME280;4073;42.626;25.386;2023-06-14T00:06:14;96901.78;;;20.01;100.00
8061;BME280;4073;42.626;25.386;2023-06-14T00:08:39;96897.50;;;20.00;100.00
8061;BME280;4073;42.626;25.386;2023-06-14T00:11:06;96904.06;;;19.99;100.00
8061;BME280;4073;42.626;25.386;2023-06-14T00:13:31;96896.94;;;19.95;100.00
8061;BME280;4073;42.626;25.386;2023-06-14T00:15:57;96897.81;;;19.87;100.00
8061;BME280;4073;42.626;25.386;2023-06-14T00:18:22;96892.81;;;19.77;100.00
8061;BME280;4073;42.626;25.386;2023-06-14T00:20:55;96891.34;;;19.67;100.00
8061;BME280;4073;42.626;25.386;2023-06-14T00:23:20;96897.75;;;19.63;100.00
8061;BME280;4073;42.626;25.386;2023-06-14T00:25:46;96895.72;;;19.60;100.00
8061;BME280;4073;42.626;25.386;2023-06-14T00:28:12;96898.00;;;19.58;100.00
8061;BME280;4073;42.626;25.386;2023-06-14T00:30:37;96898.84;;;19.50;100.00
8061;BME280;4073;42.626;25.386;2023-06-14T00:33:03;96892.66;;;19.49;100.00
8061;BME280;4073;42.626;25.386;2023-06-14T00:35:28;96889.47;;;19.47;100.00
8061;BME280;4073;42.626;25.386;2023-06-14T00:37:54;96883.63;;;19.45;100.00
8061;BME280;4073;42.626;25.386;2023-06-14T00:40:20;96873.97;;;19.36;100.00
8061;BME280;4073;42.626;25.386;2023-06-14T00:42:47;96890.56;;;19.34;100.00
8061;BME280;4073;42.626;25.386;2023-06-14T00:45:12;96888.06;;;19.29;100.00
8061;BME280;4073;42.626;25.386;2023-06-14T00:47:38;96883.47;;;19.30;100.00
8061;BME280;4073;42.626;25.386;2023-06-14T00:50:07;96883.84;;;19.20;100.00
8061;BME280;4073;42.626;25.386;2023-06-14T00:52:33;96873.19;;;19.15;100.00
8061;BME280;4073;42.626;25.386;2023-06-14T00:54:59;96870.97;;;19.17;100.00
8061;BME280;4073;42.626;25.386;2023-06-14T00:57:26;96874.31;;;19.14;100.00
8061;BME280;4073;42.626;25.386;2023-06-14T00:59:52;96859.94;;;19.01;100.00
8061;BME280;4073;42.626;25.386;2023-06-14T01:02:17;96859.94;;;19.01;100.00
8061;BME280;4073;42.626;25.386;2023-06-14T01:04:46;96867.38;;;19.04;100.00
8061;BME280;4073;42.626;25.386;2023-06-14T01:10:35;96862.84;;;18.96;100.00
8061;BME280;4073;42.626;25.386;2023-06-14T01:15:57;96876.88;;;18.98;100.00
8061;BME280;4073;42.626;25.386;2023-06-14T01:18:22;96869.19;;;19.00;100.00
8061;BME280;4073;42.626;25.386;2023-06-14T01:20:49;96866.59;;;19.04;100.00
8061;BME280;4073;42.626;25.386;2023-06-14T01:23:19;96868.19;;;19.05;100.00
8061;BME280;4073;42.626;25.386;2023-06-14T01:25:46;96853.41;;;19.02;100.00
8061;BME280;4073;42.626;25.386;2023-06-14T01:28:13;96861.22;;;19.16;100.00
8061;BME280;4073;42.626;25.386;2023-06-14T01:30:42;96859.13;;;19.21;100.00
8061;BME280;4073;42.626;25.386;2023-06-14T01:33:12;96860.56;;;19.19;100.00
8061;BME280;4073;42.626;25.386;2023-06-14T01:35:39;96864.53;;;19.21;100.00
8061;BME280;4073;42.626;25.386;2023-06-14T01:38:06;96870.41;;;19.23;100.00
8061;BME280;4073;42.626;25.386;2023-06-14T01:40:34;96863.41;;;19.22;100.00
8061;BME280;4073;42.626;25.386;2023-06-14T01:43:01;96836.22;;;18.98;100.00
8061;BME280;4073;42.626;25.386;2023-06-14T01:45:28;96862.03;;;19.16;100.00
8061;BME280;4073;42.626;25.386;2023-06-14T01:47:54;96861.22;;;19.16;100.00
8061;BME280;4073;42.626;25.386;2023-06-14T01:50:20;96870.63;;;19.18;100.00
8061;BME280;4073;42.626;25.386;2023-06-14T01:52:46;96865.53;;;19.17;100.00
8061;BME280;4073;42.626;25.386;2023-06-14T01:55:11;96862.69;;;19.13;100.00
8061;BME280;4073;42.626;25.386;2023-06-14T01:57:37;96870.22;;;19.08;100.00
8061;BME280;4073;42.626;25.386;2023-06-14T02:00:04;96869.56;;;19.11;100.00
8061;BME280;4073;42.626;25.386;2023-06-14T02:02:33;96863.91;;;19.04;100.00
8061;BME280;4073;42.626;25.386;2023-06-14T02:04:58;96866.13;;;19.02;100.00
8061;BME280;4073;42.626;25.386;2023-06-14T02:07:24;96871.22;;;19.03;100.00
8061;BME280;4073;42.626;25.386;2023-06-14T02:09:49;96869.31;;;19.04;100.00
8061;BME280;4073;42.626;25.386;2023-06-14T02:12:15;96860.88;;;19.05;100.00
8061;BME280;4073;42.626;25.386;2023-06-14T02:14:40;96862.03;;;18.96;100.00
8061;BME280;4073;42.626;25.386;2023-06-14T02:17:06;96865.03;;;19.03;100.00
8061;BME280;4073;42.626;25.386;2023-06-14T02:19:32;96865.22;;;18.98;100.00
8061;BME280;4073;42.626;25.386;2023-06-14T02:21:57;96854.53;;;19.01;100.00
8061;BME280;4073;42.626;25.386;2023-06-14T02:24:22;96859.16;;;19.01;100.00
8061;BME280;4073;42.626;25.386;2023-06-14T02:26:49;96860.88;;;19.05;100.00
8061;BME280;4073;42.626;25.386;2023-06-14T02:29:14;96858.16;;;19.05;100.00
8061;BME280;4073;42.626;25.386;2023-06-14T02:31:41;96850.34;;;19.04;100.00
8061;BME280;4073;42.626;25.386;2023-06-14T02:34:06;96862.78;;;19.05;100.00
8061;BME280;4073;42.626;25.386;2023-06-14T02:36:34;96858.47;;;19.04;100.00
8061;BME280;4073;42.626;25.386;2023-06-14T02:39:00;96859.25;;;19.04;100.00
8061;BME280;4073;42.626;25.386;2023-06-14T02:41:26;96864.66;;;19.04;100.00
8061;BME280;4073;42.626;25.386;2023-06-14T02:43:52;96865.47;;;19.05;100.00
8061;BME280;4073;42.626;25.386;2023-06-14T02:46:18;96873.28;;;19.06;100.00
8061;BME280;4073;42.626;25.386;2023-06-14T02:48:43;96867.38;;;19.04;100.00
8061;BME280;4073;42.626;25.386;2023-06-14T02:51:09;96868.84;;;19.02;100.00
8061;BME280;4073;42.626;25.386;2023-06-14T02:53:35;96862.84;;;18.96;100.00
8061;BME280;4073;42.626;25.386;2023-06-14T02:56:01;96874.25;;;19.02;100.00
8061;BME280;4073;42.626;25.386;2023-06-14T02:58:29;96877.97;;;18.97;100.00
8061;BME280;4073;42.626;25.386;2023-06-14T03:00:55;96868.06;;;18.81;100.00
8061;BME280;4073;42.626;25.386;2023-06-14T03:03:20;96874.38;;;18.73;100.00
8061;BME280;4073;42.626;25.386;2023-06-14T03:05:47;96873.03;;;18.79;100.00
8061;BME280;4073;42.626;25.386;2023-06-14T03:08:14;96874.63;;;18.80;100.00
8061;BME280;4073;42.626;25.386;2023-06-14T03:10:50;96872.50;;;18.85;100.00
8061;BME280;4073;42.626;25.386;2023-06-14T03:13:16;96877.91;;;18.85;100.00
8061;BME280;4073;42.626;25.386;2023-06-14T03:15:42;96880.41;;;18.90;100.00
8061;BME280;4073;42.626;25.386;2023-06-14T03:18:08;96879.91;;;18.97;100.00
8061;BME280;4073;42.626;25.386;2023-06-14T03:20:37;96886.25;;;19.01;100.00
8061;BME280;4073;42.626;25.386;2023-06-14T03:23:04;96892.25;;;19.06;100.00
8061;BME280;4073;42.626;25.386;2023-06-14T03:25:30;96892.25;;;19.06;100.00
8061;BME280;4073;42.626;25.386;2023-06-14T03:27:57;96884.00;;;19.03;100.00
8061;BME280;4073;42.626;25.386;2023-06-14T03:30:22;96886.03;;;19.06;100.00
8061;BME280;4073;42.626;25.386;2023-06-14T03:32:48;96894.28;;;19.09;100.00
8061;BME280;4073;42.626;25.386;2023-06-14T03:35:13;96883.13;;;19.11;100.00
8061;BME280;4073;42.626;25.386;2023-06-14T03:37:46;96890.59;;;19.14;100.00
8061;BME280;4073;42.626;25.386;2023-06-14T03:40:13;96898.50;;;19.19;100.00
8061;BME280;4073;42.626;25.386;2023-06-14T03:42:39;96896.69;;;19.23;100.00
8061;BME280;4073;42.626;25.386;2023-06-14T03:45:06;96889.22;;;19.28;100.00
8061;BME280;4073;42.626;25.386;2023-06-14T03:47:32;96887.94;;;19.26;100.00
8061;BME280;4073;42.626;25.386;2023-06-14T03:49:57;96894.88;;;19.35;100.00
8061;BME280;4073;42.626;25.386;2023-06-14T03:52:23;96895.13;;;19.42;100.00
8061;BME280;4073;42.626;25.386;2023-06-14T03:54:49;96895.22;;;19.46;100.00
8061;BME280;4073;42.626;25.386;2023-06-14T03:57:15;96894.38;;;19.54;100.00
8061;BME280;4073;42.626;25.386;2023-06-14T03:59:40;96894.63;;;19.61;100.00
8061;BME280;4073;42.626;25.386;2023-06-14T04:02:06;96897.66;;;19.71;100.00
8061;BME280;4073;42.626;25.386;2023-06-14T04:04:32;96905.47;;;19.73;100.00
8061;BME280;4073;42.626;25.386;2023-06-14T04:06:58;96902.66;;;19.69;100.00
8061;BME280;4073;42.626;25.386;2023-06-14T04:09:25;96912.84;;;19.84;100.00
8061;BME280;4073;42.626;25.386;2023-06-14T04:11:54;96913.31;;;19.98;100.00
8061;BME280;4073;42.626;25.386;2023-06-14T04:14:20;96917.97;;;20.10;100.00
8061;BME280;4073;42.626;25.386;2023-06-14T04:16:46;96906.94;;;20.15;100.00
8061;BME280;4073;42.626;25.386;2023-06-14T04:19:12;96909.97;;;20.13;100.00
8061;BME280;4073;42.626;25.386;2023-06-14T04:21:37;96913.94;;;20.16;100.00
8061;BME280;4073;42.626;25.386;2023-06-14T04:24:03;96915.97;;;20.19;100.00
8061;BME280;4073;42.626;25.386;2023-06-14T04:26:29;96919.47;;;20.19;100.00
8061;BME280;4073;42.626;25.386;2023-06-14T04:28:55;96921.50;;;20.22;100.00
8061;BME280;4073;42.626;25.386;2023-06-14T04:31:22;96919.25;;;20.24;100.00
8061;BME280;4073;42.626;25.386;2023-06-14T04:33:50;96919.69;;;20.26;100.00
8061;BME280;4073;42.626;25.386;2023-06-14T04:36:18;96921.63;;;20.26;100.00
8061;BME280;4073;42.626;25.386;2023-06-14T04:38:44;96925.47;;;20.25;100.00
8061;BME280;4073;42.626;25.386;2023-06-14T04:41:10;96921.50;;;20.22;100.00
8061;BME280;4073;42.626;25.386;2023-06-14T04:43:37;96931.91;;;20.32;100.00
8061;BME280;4073;42.626;25.386;2023-06-14T04:46:06;96923.19;;;20.27;100.00
8061;BME280;4073;42.626;25.386;2023-06-14T04:48:36;96940.53;;;20.34;100.00
8061;BME280;4073;42.626;25.386;2023-06-14T04:51:03;96939.59;;;20.42;100.00
8061;BME280;4073;42.626;25.386;2023-06-14T04:53:29;96939.94;;;20.41;100.00
8061;BME280;4073;42.626;25.386;2023-06-14T04:55:54;96948.66;;;20.47;100.00
8061;BME280;4073;42.626;25.386;2023-06-14T04:58:20;96942.66;;;20.53;100.00
8061;BME280;4073;42.626;25.386;2023-06-14T05:00:45;96929.06;;;20.41;100.00
8061;BME280;4073;42.626;25.386;2023-06-14T05:03:11;96951.25;;;20.67;100.00
8061;BME280;4073;42.626;25.386;2023-06-14T05:05:40;96955.53;;;20.80;100.00
8061;BME280;4073;42.626;25.386;2023-06-14T05:08:06;96957.25;;;20.85;100.00
8061;BME280;4073;42.626;25.386;2023-06-14T05:10:31;96960.16;;;20.92;100.00
8061;BME280;4073;42.626;25.386;2023-06-14T05:12:57;96961.53;;;20.98;100.00
8061;BME280;4073;42.626;25.386;2023-06-14T05:15:22;96972.59;;;21.05;100.00
8061;BME280;4073;42.626;25.386;2023-06-14T05:17:50;96970.69;;;21.05;100.00
8061;BME280;4073;42.626;25.386;2023-06-14T05:20:21;96970.00;;;21.08;100.00
8061;BME280;4073;42.626;25.386;2023-06-14T05:22:48;96983.03;;;21.03;100.00
8061;BME280;4073;42.626;25.386;2023-06-14T05:25:17;96982.91;;;20.99;100.00
8061;BME280;4073;42.626;25.386;2023-06-14T05:27:42;96983.25;;;20.86;100.00
8061;BME280;4073;42.626;25.386;2023-06-14T05:30:08;96980.09;;;20.84;100.00
8061;BME280;4073;42.626;25.386;2023-06-14T05:32:34;96984.31;;;20.93;100.00
8061;BME280;4073;42.626;25.386;2023-06-14T05:34:59;96982.34;;;21.06;100.00
8061;BME280;4073;42.626;25.386;2023-06-14T05:37:25;96979.94;;;21.16;100.00
8061;BME280;4073;42.626;25.386;2023-06-14T05:39:50;96986.31;;;21.20;100.00
8061;BME280;4073;42.626;25.386;2023-06-14T05:42:16;96983.19;;;21.34;100.00
8061;BME280;4073;42.626;25.386;2023-06-14T05:44:41;96984.06;;;21.38;100.00
8061;BME280;4073;42.626;25.386;2023-06-14T05:47:07;96983.94;;;21.46;100.00
8061;BME280;4073;42.626;25.386;2023-06-14T05:49:32;96975.88;;;21.50;100.00
8061;BME280;4073;42.626;25.386;2023-06-14T05:51:58;96987.16;;;21.64;100.00
8061;BME280;4073;42.626;25.386;2023-06-14T05:54:23;96986.22;;;21.72;100.00
8061;BME280;4073;42.626;25.386;2023-06-14T05:56:48;96997.31;;;21.79;100.00
8061;BME280;4073;42.626;25.386;2023-06-14T05:59:14;97000.69;;;21.88;100.00
8061;BME280;4073;42.626;25.386;2023-06-14T06:01:39;97012.03;;;21.90;100.00
8061;BME280;4073;42.626;25.386;2023-06-14T06:04:05;97013.78;;;21.98;100.00
8061;BME280;4073;42.626;25.386;2023-06-14T06:06:31;97016.00;;;22.08;100.00
8061;BME280;4073;42.626;25.386;2023-06-14T06:08:57;97011.19;;;22.17;100.00
8061;BME280;4073;42.626;25.386;2023-06-14T06:11:23;97016.66;;;22.32;100.00
8061;BME280;4073;42.626;25.386;2023-06-14T06:13:48;97028.13;;;22.53;100.00
8061;BME280;4073;42.626;25.386;2023-06-14T06:16:14;97015.72;;;22.56;100.00
8061;BME280;4073;42.626;25.386;2023-06-14T06:18:40;97026.16;;;22.69;100.00
8061;BME280;4073;42.626;25.386;2023-06-14T06:21:05;97021.84;;;22.68;100.00
8061;BME280;4073;42.626;25.386;2023-06-14T06:23:31;97024.34;;;22.73;100.00
8061;BME280;4073;42.626;25.386;2023-06-14T06:25:57;97036.47;;;22.76;100.00
8061;BME280;4073;42.626;25.386;2023-06-14T06:28:22;97030.72;;;22.81;100.00
8061;BME280;4073;42.626;25.386;2023-06-14T06:30:47;97034.53;;;22.77;100.00
8061;BME280;4073;42.626;25.386;2023-06-14T06:33:13;97025.44;;;22.72;100.00
8061;BME280;4073;42.626;25.386;2023-06-14T06:35:39;97036.97;;;22.82;100.00
8061;BME280;4073;42.626;25.386;2023-06-14T06:38:05;97036.59;;;22.99;100.00
8061;BME280;4073;42.626;25.386;2023-06-14T06:40:30;97037.38;;;23.15;100.00
8061;BME280;4073;42.626;25.386;2023-06-14T06:42:56;97039.22;;;23.26;100.00
8061;BME280;4073;42.626;25.386;2023-06-14T06:45:21;97037.22;;;23.23;100.00
8061;BME280;4073;42.626;25.386;2023-06-14T06:47:48;97037.72;;;23.29;100.00
8061;BME280;4073;42.626;25.386;2023-06-14T06:50:14;97036.00;;;23.40;100.00
8061;BME280;4073;42.626;25.386;2023-06-14T06:52:39;97047.16;;;23.50;100.00
8061;BME280;4073;42.626;25.386;2023-06-14T06:55:05;97033.56;;;23.54;100.00
8061;BME280;4073;42.626;25.386;2023-06-14T06:57:31;97049.13;;;23.69;100.00
8061;BME280;4073;42.626;25.386;2023-06-14T06:59:57;97043.28;;;23.70;100.00
8061;BME280;4073;42.626;25.386;2023-06-14T07:02:22;97052.47;;;23.81;100.00
8061;BME280;4073;42.626;25.386;2023-06-14T07:04:48;97051.53;;;23.74;100.00
8061;BME280;4073;42.626;25.386;2023-06-14T07:07:13;97054.00;;;23.79;100.00
8061;BME280;4073;42.626;25.386;2023-06-14T07:09:39;97044.22;;;23.78;100.00
8061;BME280;4073;42.626;25.386;2023-06-14T07:12:06;97045.72;;;23.75;100.00
8061;BME280;4073;42.626;25.386;2023-06-14T07:14:33;97047.28;;;23.76;100.00
8061;BME280;4073;42.626;25.386;2023-06-14T07:16:58;97039.34;;;23.87;100.00
8061;BME280;4073;42.626;25.386;2023-06-14T07:19:23;97047.34;;;23.95;100.00
8061;BME280;4073;42.626;25.386;2023-06-14T07:21:49;97044.38;;;24.04;100.00
8061;BME280;4073;42.626;25.386;2023-06-14T07:24:14;97035.34;;;24.00;100.00
8061;BME280;4073;42.626;25.386;2023-06-14T07:26:40;97043.53;;;24.00;100.00
8061;BME280;4073;42.626;25.386;2023-06-14T07:29:05;97041.28;;;24.05;100.00
8061;BME280;4073;42.626;25.386;2023-06-14T07:31:31;97038.47;;;24.02;100.00
8061;BME280;4073;42.626;25.386;2023-06-14T07:33:56;97030.78;;;23.88;100.00
8061;BME280;4073;42.626;25.386;2023-06-14T07:36:22;97036.81;;;23.78;100.00
8061;BME280;4073;42.626;25.386;2023-06-14T07:38:48;97046.22;;;23.81;100.00
8061;BME280;4073;42.626;25.386;2023-06-14T07:41:13;97049.31;;;23.79;100.00
8061;BME280;4073;42.626;25.386;2023-06-14T07:43:38;97048.19;;;23.80;100.00
8061;BME280;4073;42.626;25.386;2023-06-14T07:46:04;97044.88;;;23.90;100.00
8061;BME280;4073;42.626;25.386;2023-06-14T07:48:30;97042.72;;;23.80;100.00
8061;BME280;4073;42.626;25.386;2023-06-14T07:50:55;97039.69;;;23.85;100.00
8061;BME280;4073;42.626;25.386;2023-06-14T07:53:21;97043.22;;;23.86;100.00
8061;BME280;4073;42.626;25.386;2023-06-14T07:55:46;97038.34;;;23.95;100.00
8061;BME280;4073;42.626;25.386;2023-06-14T07:58:13;97045.19;;;24.04;100.00
8061;BME280;4073;42.626;25.386;2023-06-14T08:00:39;97037.72;;;24.01;100.00
8061;BME280;4073;42.626;25.386;2023-06-14T08:03:04;97044.25;;;24.16;100.00
8061;BME280;4073;42.626;25.386;2023-06-14T08:05:30;97054.56;;;24.26;100.00
8061;BME280;4073;42.626;25.386;2023-06-14T08:07:55;97039.53;;;24.16;100.00
8061;BME280;4073;42.626;25.386;2023-06-14T08:10:22;97043.47;;;24.38;100.00
8061;BME280;4073;42.626;25.386;2023-06-14T08:12:47;97043.41;;;24.57;100.00
8061;BME280;4073;42.626;25.386;2023-06-14T08:15:15;97053.13;;;24.54;100.00
8061;BME280;4073;42.626;25.386;2023-06-14T08:17:42;97033.81;;;24.21;100.00
8061;BME280;4073;42.626;25.386;2023-06-14T08:20:09;97050.13;;;24.40;100.00
8061;BME280;4073;42.626;25.386;2023-06-14T08:22:36;97047.00;;;24.61;98.77
8061;BME280;4073;42.626;25.386;2023-06-14T08:25:01;97060.69;;;24.83;97.61
8061;BME280;4073;42.626;25.386;2023-06-14T08:27:27;97058.91;;;24.94;96.65
8061;BME280;4073;42.626;25.386;2023-06-14T08:29:54;97067.41;;;25.12;94.46
8061;BME280;4073;42.626;25.386;2023-06-14T08:32:20;97057.28;;;25.16;94.06
8061;BME280;4073;42.626;25.386;2023-06-14T08:34:45;97055.50;;;25.27;93.64
8061;BME280;4073;42.626;25.386;2023-06-14T08:37:11;97058.72;;;25.33;93.89
8061;BME280;4073;42.626;25.386;2023-06-14T08:39:36;97058.16;;;25.46;91.41
8061;BME280;4073;42.626;25.386;2023-06-14T08:42:03;97063.28;;;25.51;90.53
8061;BME280;4073;42.626;25.386;2023-06-14T08:44:30;97065.91;;;25.41;91.85
8061;BME280;4073;42.626;25.386;2023-06-14T08:46:56;97059.78;;;25.80;91.09
8061;BME280;4073;42.626;25.386;2023-06-14T08:49:22;97061.81;;;25.87;88.70
8061;BME280;4073;42.626;25.386;2023-06-14T08:51:57;97063.19;;;26.00;90.68
8061;BME280;4073;42.626;25.386;2023-06-14T08:54:22;97068.88;;;26.17;87.25
8061;BME280;4073;42.626;25.386;2023-06-14T08:56:49;97054.44;;;26.24;86.91
8061;BME280;4073;42.626;25.386;2023-06-14T08:59:17;97058.13;;;26.38;87.59
8061;BME280;4073;42.626;25.386;2023-06-14T09:01:44;97057.34;;;26.38;88.86
8061;BME280;4073;42.626;25.386;2023-06-14T09:04:10;97067.91;;;26.39;88.83
8061;BME280;4073;42.626;25.386;2023-06-14T09:06:36;97066.53;;;26.19;87.30
8061;BME280;4073;42.626;25.386;2023-06-14T09:09:02;97071.91;;;26.09;91.16
8061;BME280;4073;42.626;25.386;2023-06-14T09:11:30;97062.88;;;26.05;92.76
8061;BME280;4073;42.626;25.386;2023-06-14T09:13:56;97067.09;;;26.32;89.73
8061;BME280;4073;42.626;25.386;2023-06-14T09:16:21;97077.69;;;26.04;90.87
8061;BME280;4073;42.626;25.386;2023-06-14T09:18:47;97062.13;;;26.08;89.83
8061;BME280;4073;42.626;25.386;2023-06-14T09:21:14;97073.19;;;26.18;89.83
8061;BME280;4073;42.626;25.386;2023-06-14T09:23:45;97074.81;;;26.23;91.55
8061;BME280;4073;42.626;25.386;2023-06-14T09:26:15;97064.56;;;26.16;90.33
8061;BME280;4073;42.626;25.386;2023-06-14T09:28:42;97066.88;;;26.14;91.91
8061;BME280;4073;42.626;25.386;2023-06-14T09:31:10;97063.25;;;26.07;91.21
8061;BME280;4073;42.626;25.386;2023-06-14T09:33:36;97062.94;;;26.12;92.20
8061;BME280;4073;42.626;25.386;2023-06-14T09:36:03;97063.88;;;26.26;92.90
8061;BME280;4073;42.626;25.386;2023-06-14T09:38:28;97062.06;;;26.37;92.67
8061;BME280;4073;42.626;25.386;2023-06-14T09:40:57;97061.69;;;26.42;91.32
8061;BME280;4073;42.626;25.386;2023-06-14T09:43:23;97063.38;;;26.54;89.54
8061;BME280;4073;42.626;25.386;2023-06-14T09:45:50;97060.56;;;26.47;88.78
8061;BME280;4073;42.626;25.386;2023-06-14T09:48:16;97064.00;;;26.37;90.03
8061;BME280;4073;42.626;25.386;2023-06-14T09:50:46;97058.00;;;26.24;91.89
8061;BME280;4073;42.626;25.386;2023-06-14T09:53:15;97055.53;;;26.16;91.75
8061;BME280;4073;42.626;25.386;2023-06-14T09:55:41;97060.03;;;25.98;91.99
8061;BME280;4073;42.626;25.386;2023-06-14T09:58:08;97062.69;;;25.94;93.72
8061;BME280;4073;42.626;25.386;2023-06-14T10:00:35;97057.47;;;25.82;94.52
8061;BME280;4073;42.626;25.386;2023-06-14T10:03:14;97052.44;;;25.58;96.25
8061;BME280;4073;42.626;25.386;2023-06-14T10:05:45;97045.63;;;25.45;98.53
8061;BME280;4073;42.626;25.386;2023-06-14T10:08:16;97043.75;;;25.49;98.29
8061;BME280;4073;42.626;25.386;2023-06-14T10:10:43;97043.63;;;25.42;99.91
8061;BME280;4073;42.626;25.386;2023-06-14T10:13:10;97046.50;;;25.53;100.00
8061;BME280;4073;42.626;25.386;2023-06-14T10:16:00;97051.66;;;25.58;100.00
8061;BME280;4073;42.626;25.386;2023-06-14T10:24:02;97050.03;;;25.27;100.00
8061;BME280;4073;42.626;25.386;2023-06-14T10:26:29;97048.44;;;25.00;100.00
8061;BME280;4073;42.626;25.386;2023-06-14T10:29:17;97048.66;;;24.65;100.00
8061;BME280;4073;42.626;25.386;2023-06-14T10:31:48;97044.91;;;24.54;100.00
8061;BME280;4073;42.626;25.386;2023-06-14T10:34:24;97043.28;;;24.50;100.00
8061;BME280;4073;42.626;25.386;2023-06-14T10:37:07;97041.53;;;24.38;100.00
8061;BME280;4073;42.626;25.386;2023-06-14T10:39:39;97047.59;;;24.28;100.00
8061;BME280;4073;42.626;25.386;2023-06-14T10:42:06;97049.03;;;24.22;100.00
8061;BME280;4073;42.626;25.386;2023-06-14T10:47:01;97049.97;;;24.11;100.00
8061;BME280;4073;42.626;25.386;2023-06-14T10:49:37;97046.75;;;24.05;100.00
8061;BME280;4073;42.626;25.386;2023-06-14T10:52:17;97048.78;;;24.08;100.00
8061;BME280;4073;42.626;25.386;2023-06-14T10:55:11;97049.25;;;23.95;100.00
8061;BME280;4073;42.626;25.386;2023-06-14T10:57:39;97046.97;;;23.97;100.00
8061;BME280;4073;42.626;25.386;2023-06-14T11:00:06;97037.75;;;23.86;100.00
8061;BME280;4073;42.626;25.386;2023-06-14T11:05:08;97043.34;;;23.74;100.00
8061;BME280;4073;42.626;25.386;2023-06-14T11:10:42;97039.84;;;24.11;100.00
8061;BME280;4073;42.626;25.386;2023-06-14T11:13:08;97036.91;;;24.20;100.00
8061;BME280;4073;42.626;25.386;2023-06-14T11:15:36;97037.47;;;24.51;100.00
8061;BME280;4073;42.626;25.386;2023-06-14T11:18:06;97032.66;;;24.90;100.00
8061;BME280;4073;42.626;25.386;2023-06-14T11:20:35;97044.69;;;25.08;100.00
8061;BME280;4073;42.626;25.386;2023-06-14T11:23:02;97030.47;;;25.25;100.00
8061;BME280;4073;42.626;25.386;2023-06-14T11:25:28;97040.25;;;25.26;100.00
8061;BME280;4073;42.626;25.386;2023-06-14T11:27:54;97035.09;;;25.47;100.00
8061;BME280;4073;42.626;25.386;2023-06-14T11:30:21;97043.84;;;25.56;100.00
8061;BME280;4073;42.626;25.386;2023-06-14T11:32:48;97035.25;;;25.58;100.00
8061;BME280;4073;42.626;25.386;2023-06-14T11:35:16;97035.84;;;25.44;100.00
8061;BME280;4073;42.626;25.386;2023-06-14T11:37:41;97034.03;;;25.29;100.00
8061;BME280;4073;42.626;25.386;2023-06-14T11:40:08;97041.88;;;25.04;100.00
8061;BME280;4073;42.626;25.386;2023-06-14T11:42:35;97053.81;;;24.93;100.00
8061;BME280;4073;42.626;25.386;2023-06-14T11:45:03;97037.91;;;24.76;100.00
8061;BME280;4073;42.626;25.386;2023-06-14T11:47:34;97039.53;;;24.58;100.00
8061;BME280;4073;42.626;25.386;2023-06-14T11:50:01;97038.00;;;24.38;100.00
8061;BME280;4073;42.626;25.386;2023-06-14T11:52:27;97030.47;;;24.31;100.00
8061;BME280;4073;42.626;25.386;2023-06-14T11:54:53;97033.69;;;24.37;100.00
8061;BME280;4073;42.626;25.386;2023-06-14T11:57:19;97030.84;;;24.52;100.00
8061;BME280;4073;42.626;25.386;2023-06-14T11:59:45;97032.03;;;24.74;100.00
8061;BME280;4073;42.626;25.386;2023-06-14T12:02:18;97040.22;;;25.00;100.00
8061;BME280;4073;42.626;25.386;2023-06-14T12:04:46;97031.19;;;25.22;100.00
8061;BME280;4073;42.626;25.386;2023-06-14T12:07:14;97028.69;;;25.36;100.00
8061;BME280;4073;42.626;25.386;2023-06-14T12:12:17;97030.13;;;25.86;100.00
8061;BME280;4073;42.626;25.386;2023-06-14T12:14:42;97018.34;;;25.82;100.00
8061;BME280;4073;42.626;25.386;2023-06-14T12:17:08;97023.25;;;25.99;100.00
8061;BME280;4073;42.626;25.386;2023-06-14T12:19:43;97020.22;;;26.07;100.00
8061;BME280;4073;42.626;25.386;2023-06-14T12:22:10;97014.94;;;26.25;100.00
8061;BME280;4073;42.626;25.386;2023-06-14T12:24:35;97012.34;;;26.42;100.00
8061;BME280;4073;42.626;25.386;2023-06-14T12:27:01;97006.19;;;26.52;100.00
8061;BME280;4073;42.626;25.386;2023-06-14T12:29:30;97007.50;;;26.65;100.00
8061;BME280;4073;42.626;25.386;2023-06-14T12:31:56;97018.63;;;26.86;100.00
8061;BME280;4073;42.626;25.386;2023-06-14T12:34:26;97011.88;;;26.73;99.60
8061;BME280;4073;42.626;25.386;2023-06-14T12:36:55;97009.66;;;26.86;100.00
8061;BME280;4073;42.626;25.386;2023-06-14T12:39:21;96998.41;;;27.05;100.00
8061;BME280;4073;42.626;25.386;2023-06-14T12:41:47;97003.13;;;27.08;98.81
8061;BME280;4073;42.626;25.386;2023-06-14T12:44:14;97000.41;;;27.11;92.56
8061;BME280;4073;42.626;25.386;2023-06-14T12:46:41;97002.75;;;27.09;92.70
8061;BME280;4073;42.626;25.386;2023-06-14T12:49:10;96997.63;;;27.08;93.71
8061;BME280;4073;42.626;25.386;2023-06-14T12:51:37;96991.63;;;26.88;90.75
8061;BME280;4073;42.626;25.386;2023-06-14T12:54:03;96994.34;;;26.85;88.79
8061;BME280;4073;42.626;25.386;2023-06-14T12:56:28;96989.66;;;26.89;90.01
8061;BME280;4073;42.626;25.386;2023-06-14T12:58:54;96984.22;;;26.92;94.06
8061;BME280;4073;42.626;25.386;2023-06-14T13:01:20;96989.75;;;26.99;91.76
8061;BME280;4073;42.626;25.386;2023-06-14T13:03:48;96986.31;;;27.13;88.19
8061;BME280;4073;42.626;25.386;2023-06-14T13:06:16;96976.63;;;27.29;93.59
8061;BME280;4073;42.626;25.386;2023-06-14T13:08:41;96977.91;;;27.53;90.44
8061;BME280;4073;42.626;25.386;2023-06-14T13:11:07;96979.06;;;27.48;88.36
8061;BME280;4073;42.626;25.386;2023-06-14T13:13:32;96972.75;;;27.37;88.14
8061;BME280;4073;42.626;25.386;2023-06-14T13:15:58;96972.28;;;27.25;87.07
8061;BME280;4073;42.626;25.386;2023-06-14T13:18:23;96970.47;;;26.89;86.51
8061;BME280;4073;42.626;25.386;2023-06-14T13:20:49;96982.59;;;26.84;85.04
8061;BME280;4073;42.626;25.386;2023-06-14T13:23:15;96969.25;;;26.83;87.28